Stations météo

réclame
Mon MeteoGroup
Diepenbeek, Belgique (6477): Température de l'air & dewpoint: 08.08.2018 17:00:00 - 14.08.2018 17:00:00 (CEST)Diepenbeek, Belgique (6477): Vitesse du vent & gusts: 08.08.2018 17:00:00 - 14.08.2018 17:00:00 (CEST)Diepenbeek, Belgique (6477): Direction du vent: 08.08.2018 17:00:00 - 14.08.2018 17:00:00 (CEST)Diepenbeek, Belgique (6477): reduced air pressure: 08.08.2018 17:00:00 - 14.08.2018 17:00:00 (CEST)Diepenbeek, Belgique (6477): Ensoleillement: 08.08.2018 17:00:00 - 14.08.2018 17:00:00 (CEST)Diepenbeek, Belgique (6477): Quantités de précipitations: 08.08.2018 17:00:00 - 14.08.2018 17:00:00 (CEST)
Date & Time tt [°C] td [°C] ff [km/h] ff [knt] fx [km/h] fx [knt] dd ppp [hPa] sd [min] rr [mm]
14.08.2018 17:00:00 20,8 16,3 10 6 31 17 NW 1017,0 8 0,0
14.08.2018 16:00:00 21,5 16,1 16 8 25 14 W 1016,8 1 0,0
14.08.2018 15:00:00 20,3 16,9 11 6 23 12 W 1016,6 0 0,0
14.08.2018 14:00:00 18,8 17,3 14 8 29 16 NW 1016,3 0 0,2
14.08.2018 13:00:00 21,7 15,5 15 8 31 17 W 1015,3 11 0,0
14.08.2018 12:00:00 21,2 16,2 11 6 24 13 W 1015,2 16 0,0
14.08.2018 11:00:00 20,0 16,1 13 7 24 13 W 1014,9 21 0,0
14.08.2018 10:00:00 19,0 16,7 12 7 22 12 W 1014,5 6 0,0
14.08.2018 09:00:00 17,8 16,3 14 8 22 12 WSW 1013,9 0 0,0
14.08.2018 08:00:00 16,8 15,8 11 6 20 11 WSW 1013,2 0 0,0
14.08.2018 07:00:00 16,6 15,3 11 6 19 11 WSW 1012,6 0 0,0
14.08.2018 06:00:00 16,1 14,9 11 6 21 11 WSW 1012,0 0 0,0
14.08.2018 05:00:00 15,4 14,3 9 5 18 10 SW 1011,9 0 0,0
14.08.2018 04:00:00 15,8 14,4 11 6 20 11 SW 1011,6 0 0,0
14.08.2018 03:00:00 16,2 14,6 10 5 18 10 SW 1011,2 0 0,0
14.08.2018 02:00:00 16,4 14,9 11 6 19 10 SW 1011,0 0 0,0
14.08.2018 01:00:00 16,9 15,4 8 4 14 8 SW 1010,6 0 0,0
14.08.2018 00:00:00 17,4 15,7 8 4 15 8 SW 1010,0 0 0,0
13.08.2018 23:00:00 17,4 15,6 12 7 18 10 WSW 1009,6 0 0,0
13.08.2018 22:00:00 17,2 15,7 9 5 14 7 SW 1009,2 0 0,0
13.08.2018 21:00:00 18,2 15,5 10 6 20 11 SW 1008,6 18 0,0
13.08.2018 20:00:00 19,3 15,3 14 8 25 14 WSW 1008,4 50 0,0
13.08.2018 19:00:00 18,4 14,7 9 5 24 13 SW 1008,2 33 0,5
13.08.2018 18:00:00 19,5 15,7 14 8 27 14 WSW 1007,9 16 0,0
13.08.2018 17:00:00 20,2 17,5 16 9 25 13 SW 1007,6 28 0,6
13.08.2018 16:00:00 18,8 16,3 12 7 29 16 WSW 1007,8 10 0,0
13.08.2018 15:00:00 16,9 15,6 11 6 52 28 WSW 1007,7 7 5,9
13.08.2018 14:00:00 20,1 16,5 18 10 34 19 WSW 1006,8 43 0,3
13.08.2018 13:00:00 18,7 17,2 16 8 39 21 SW 1007,2 12 0,6
13.08.2018 12:00:00 20,1 17,0 15 8 29 16 SSW 1007,2 0 0,0
13.08.2018 11:00:00 19,9 17,0 16 8 24 13 SSW 1007,2 18 0,0
13.08.2018 10:00:00 18,3 16,7 14 7 22 12 SW 1007,4 7 0,3
13.08.2018 09:00:00 17,7 16,6 9 5 16 9 SW 1007,3 2 0,0
13.08.2018 08:00:00 16,5 15,8 4 2 17 9 SSE 1006,4 0 0,0
13.08.2018 07:00:00 16,6 15,9 12 6 18 10 SSE 1006,4 0 2,5
13.08.2018 06:00:00 16,8 15,3 9 5 21 11 S 1007,8 0 1,7
13.08.2018 05:00:00 17,8 13,8 7 4 17 9 S 1007,3 0 0,1
13.08.2018 04:00:00 18,6 13,1 4 2 37 20 E 1007,3 0 0,0
13.08.2018 03:00:00 18,7 12,6 5 3 8 5 E 1006,9 0 0,0
13.08.2018 02:00:00 17,7 13,3 4 2 5 3 ESE 1007,8 0 0,0
13.08.2018 01:00:00 17,0 12,2 4 2 5 3 ESE 1008,3 0 0,0
13.08.2018 00:00:00 16,3 11,8 4 2 6 4 E 1009,0 0 0,0
12.08.2018 23:00:00 16,6 11,8 5 3 6 4 ESE 1009,6 0 0,0
12.08.2018 22:00:00 18,7 11,2 0 0 7 4 N 1010,3 0 0,0
12.08.2018 21:00:00 22,7 9,5 6 3 13 7 SSE 1010,4 0 0,0
12.08.2018 20:00:00 25,6 8,1 11 6 15 8 SSW 1010,3 11 0,0
12.08.2018 19:00:00 26,8 7,2 9 5 24 13 SSW 1010,8 46 0,0
12.08.2018 18:00:00 27,8 7,3 16 9 30 16 S 1011,4 60 0,0
12.08.2018 17:00:00 28,2 7,6 16 9 29 16 SW 1012,1 60 0,0
12.08.2018 16:00:00 27,5 8,3 15 8 27 15 SW 1013,0 60 0,0
12.08.2018 15:00:00 27,1 9,6 14 7 27 15 S 1013,9 60 0,0
12.08.2018 14:00:00 26,7 9,2 14 8 29 16 SW 1014,9 60 0,0
12.08.2018 13:00:00 25,2 8,6 15 8 29 16 S 1015,7 60 0,0
12.08.2018 12:00:00 24,2 8,8 16 9 27 15 SSW 1016,3 60 0,0
12.08.2018 11:00:00 22,8 9,0 15 8 29 16 SSW 1016,7 60 0,0
12.08.2018 10:00:00 20,5 9,0 13 7 21 12 SSW 1017,3 60 0,0
12.08.2018 09:00:00 17,7 10,7 8 4 11 6 S 1017,8 60 0,0
12.08.2018 08:00:00 14,3 10,4 4 2 7 4 SE 1018,2 45 0,0
12.08.2018 07:00:00 9,8 9,1 5 3 8 5 SE 1018,4 9 0,0
12.08.2018 06:00:00 9,7 9,0 5 3 7 4 ESE 1018,7 0 0,0
12.08.2018 05:00:00 9,8 9,1 4 2 5 3 ESE 1019,4 0 0,0
12.08.2018 04:00:00 10,6 9,9 4 2 5 3 ESE 1020,0 0 0,0
12.08.2018 03:00:00 10,7 9,8 4 2 4 2 ESE 1020,6 0 0,0
12.08.2018 02:00:00 10,6 9,6 4 2 5 3 ESE 1021,1 0 0,0
12.08.2018 01:00:00 10,7 9,5 0 0 4 2 N 1021,8 0 0,0
12.08.2018 00:00:00 11,5 9,9 0 0 4 2 N 1022,0 0 0,0
11.08.2018 23:00:00 12,6 10,2 4 2 4 2 SSE 1022,1 0 0,0
11.08.2018 22:00:00 14,5 9,9 0 0 7 4 N 1022,2 0 0,0
11.08.2018 21:00:00 19,7 7,4 7 4 11 6 NNW 1022,1 - -
11.08.2018 20:00:00 21,0 7,3 7 4 16 9 NW 1022,1 60 0,0
11.08.2018 19:00:00 22,1 6,9 9 5 25 14 W 1022,5 60 0,0
11.08.2018 18:00:00 22,4 6,7 11 6 24 13 W 1022,6 60 0,0
11.08.2018 17:00:00 22,8 6,9 16 9 27 15 SW 1022,9 60 0,0
11.08.2018 16:00:00 22,3 6,7 15 8 27 15 W 1023,3 50 0,0
11.08.2018 15:00:00 21,1 6,2 18 10 26 14 SW 1023,6 47 0,0
11.08.2018 14:00:00 21,5 6,7 18 10 29 16 W 1024,0 47 0,0
11.08.2018 13:00:00 20,4 8,6 14 8 27 15 W 1024,0 52 0,0
11.08.2018 12:00:00 19,6 9,0 14 8 25 13 W 1024,2 48 0,0
11.08.2018 11:00:00 18,2 9,6 16 9 29 16 W 1024,2 52 0,0
11.08.2018 10:00:00 16,9 11,3 12 7 22 12 W 1024,0 59 0,0
11.08.2018 09:00:00 15,4 12,4 10 5 22 12 WSW 1023,6 60 0,0
11.08.2018 08:00:00 14,1 12,5 7 4 14 7 WSW 1023,2 60 0,0
11.08.2018 07:00:00 13,0 11,8 6 4 15 8 WSW 1022,8 9 0,0
11.08.2018 06:00:00 13,8 12,2 11 6 23 12 WSW 1022,2 0 0,0
11.08.2018 05:00:00 12,9 12,3 7 4 11 6 WSW 1021,7 0 0,0
11.08.2018 04:00:00 13,1 11,9 4 2 15 8 W 1021,6 0 0,6
11.08.2018 03:00:00 13,7 12,2 6 4 44 24 WSW 1021,7 0 0,6
11.08.2018 02:00:00 16,7 12,5 22 12 35 19 W 1021,2 0 0,0
11.08.2018 01:00:00 18,6 8,2 18 10 34 18 SW 1020,5 0 0,0
11.08.2018 00:00:00 18,4 7,9 12 7 22 12 SSW 1020,3 0 0,0
10.08.2018 23:00:00 19,2 7,9 13 7 22 12 SW 1020,5 0 0,0
10.08.2018 22:00:00 19,0 8,5 10 5 22 12 SW 1020,7 0 0,0
10.08.2018 21:00:00 20,3 7,9 16 8 29 15 SSW 1020,4 11 0,0
10.08.2018 20:00:00 21,5 6,8 22 12 36 19 SW 1020,4 47 0,0
10.08.2018 19:00:00 22,1 7,4 18 10 35 19 SW 1020,8 46 0,0
10.08.2018 18:00:00 22,4 7,8 22 12 44 24 SW 1021,1 50 0,0
10.08.2018 17:00:00 22,8 7,3 20 11 41 22 SW 1021,5 51 0,0
10.08.2018 16:00:00 22,7 7,5 24 13 50 27 WSW 1022,0 56 0,0
10.08.2018 15:00:00 21,2 7,8 26 14 38 21 WSW 1022,5 45 0,0
10.08.2018 14:00:00 20,7 7,5 25 14 39 21 SW 1022,6 25 0,0
10.08.2018 13:00:00 20,3 8,7 22 12 40 22 SW 1022,7 27 0,0
10.08.2018 12:00:00 20,3 9,1 23 12 40 22 SW 1022,8 46 0,0
10.08.2018 11:00:00 19,2 10,3 23 12 40 22 WSW 1022,6 57 0,0
10.08.2018 10:00:00 18,0 12,1 19 10 35 19 SW 1022,4 60 0,0
10.08.2018 09:00:00 15,9 12,2 18 10 28 15 SSW 1022,1 60 0,0
10.08.2018 08:00:00 14,1 12,0 11 6 23 12 SSW 1022,0 60 0,0
10.08.2018 07:00:00 12,5 11,4 9 5 13 7 SSW 1021,5 1 0,0
10.08.2018 06:00:00 12,6 11,6 6 3 13 7 S 1020,9 0 0,0
10.08.2018 05:00:00 12,7 11,7 7 4 16 9 SSW 1020,7 0 0,0
10.08.2018 04:00:00 13,5 12,1 12 7 22 12 SW 1020,4 0 0,0
10.08.2018 03:00:00 14,0 12,2 14 8 23 12 WSW 1020,0 0 0,0
10.08.2018 02:00:00 14,4 12,3 14 8 29 15 WSW 1018,8 0 0,0
10.08.2018 01:00:00 15,1 13,3 14 8 41 22 WSW 1017,7 0 0,1
10.08.2018 00:00:00 16,0 13,3 21 12 48 26 WSW 1016,4 0 0,0
09.08.2018 23:00:00 16,3 13,1 25 14 52 28 WSW 1015,0 0 0,0
09.08.2018 22:00:00 16,9 13,2 29 15 53 29 WSW 1013,6 0 0,0
09.08.2018 21:00:00 19,3 14,3 33 18 63 34 WSW 1011,8 4 0,0
09.08.2018 20:00:00 20,8 15,2 25 14 56 30 WSW 1010,5 19 0,0
09.08.2018 19:00:00 21,4 17,4 29 16 48 26 SW 1009,2 13 0,0
09.08.2018 18:00:00 23,3 17,5 28 15 50 27 SSW 1007,8 3 0,0
09.08.2018 17:00:00 23,8 18,2 17 9 34 18 S 1007,8 27 0,0
09.08.2018 16:00:00 22,5 19,5 14 8 22 12 S 1007,9 - -
09.08.2018 15:00:00 19,5 18,5 5 3 16 9 SSE 1007,9 0 1,2
09.08.2018 14:00:00 19,4 18,1 7 4 - - NE 1008,5 - -
09.08.2018 13:00:00 18,9 17,3 22 12 36 19 W 1009,6 - -
09.08.2018 12:00:00 20,9 17,3 16 9 35 19 ENE 1009,6 59 0,0
09.08.2018 11:00:00 18,1 16,3 18 10 - - ENE 1010,9 - -
09.08.2018 10:00:00 19,7 14,5 8 5 25 13 E 1012,1 5 0,3
09.08.2018 09:00:00 21,2 12,9 13 7 23 12 E 1012,2 23 0,0
09.08.2018 08:00:00 20,1 12,9 11 6 - - E 1013,2 - -
09.08.2018 07:00:00 16,0 12,7 11 6 14 8 E 1013,5 - -
09.08.2018 06:00:00 11,2 10,3 0 0 3 2 N 1014,4 0 0,0
09.08.2018 05:00:00 11,0 10,8 4 2 - - SE 1014,6 - -
09.08.2018 04:00:00 10,5 9,7 0 0 5 3 N 1015,4 0 0,0
09.08.2018 03:00:00 10,6 9,6 4 2 7 4 E 1015,8 - -
09.08.2018 02:00:00 11,3 10,1 0 0 4 2 N 1016,2 0 0,0
09.08.2018 01:00:00 12,0 10,0 4 2 7 4 SE 1016,2 0 0,0
09.08.2018 00:00:00 12,7 10,1 0 0 4 2 N 1016,1 0 0,0
08.08.2018 23:00:00 13,6 9,3 0 0 - - N 1016,3 - -
08.08.2018 22:00:00 17,3 9,9 4 2 16 9 E 1016,0 0 0,0
08.08.2018 21:00:00 21,6 10,7 6 3 19 10 W 1015,5 55 0,0
08.08.2018 20:00:00 23,2 11,6 11 6 - - W 1015,0 - -
08.08.2018 19:00:00 23,9 12,0 14 8 25 14 W 1014,8 - -
08.08.2018 18:00:00 23,9 12,4 13 7 30 16 WSW 1014,9 49 0,0
08.08.2018 17:00:00 23,6 12,6 14 8 - - W 1014,9 - -

tt = Température de l'air
td = dewpoint
ff = Vitesse du vent
fx = gusts
dd = Direction du vent
ppp = reduced air pressure
sd = Ensoleillement
rr = Quantités de précipitations

stations d'obs. à proximité